sensor_id;sensor_type;location;lat;lon;timestamp;P1;durP1;ratioP1;P2;durP2;ratioP2
25091;SDS011;13082;52.374;4.946;2023-06-24T00:01:23;6.90;;;5.22;;
25091;SDS011;13082;52.374;4.946;2023-06-24T00:03:49;6.43;;;5.30;;
25091;SDS011;13082;52.374;4.946;2023-06-24T00:06:18;6.45;;;5.18;;
25091;SDS011;13082;52.374;4.946;2023-06-24T00:08:47;6.72;;;4.93;;
25091;SDS011;13082;52.374;4.946;2023-06-24T00:11:13;5.47;;;4.85;;
25091;SDS011;13082;52.374;4.946;2023-06-24T00:13:40;7.97;;;5.63;;
25091;SDS011;13082;52.374;4.946;2023-06-24T00:16:07;7.10;;;5.32;;
25091;SDS011;13082;52.374;4.946;2023-06-24T00:18:33;8.27;;;5.65;;
25091;SDS011;13082;52.374;4.946;2023-06-24T00:21:00;11.10;;;5.90;;
25091;SDS011;13082;52.374;4.946;2023-06-24T00:23:27;9.70;;;6.00;;
25091;SDS011;13082;52.374;4.946;2023-06-24T00:25:53;7.25;;;5.95;;
25091;SDS011;13082;52.374;4.946;2023-06-24T00:28:20;10.15;;;6.70;;
25091;SDS011;13082;52.374;4.946;2023-06-24T00:30:46;7.50;;;5.78;;
25091;SDS011;13082;52.374;4.946;2023-06-24T00:33:12;10.45;;;6.60;;
25091;SDS011;13082;52.374;4.946;2023-06-24T00:35:39;8.10;;;6.60;;
25091;SDS011;13082;52.374;4.946;2023-06-24T00:38:05;7.78;;;6.15;;
25091;SDS011;13082;52.374;4.946;2023-06-24T00:40:31;7.90;;;6.47;;
25091;SDS011;13082;52.374;4.946;2023-06-24T00:42:57;8.50;;;7.07;;
25091;SDS011;13082;52.374;4.946;2023-06-24T00:45:23;9.80;;;6.97;;
25091;SDS011;13082;52.374;4.946;2023-06-24T00:47:49;7.82;;;6.32;;
25091;SDS011;13082;52.374;4.946;2023-06-24T00:50:16;10.63;;;6.05;;
25091;SDS011;13082;52.374;4.946;2023-06-24T00:52:42;8.90;;;6.35;;
25091;SDS011;13082;52.374;4.946;2023-06-24T00:55:11;9.85;;;5.80;;
25091;SDS011;13082;52.374;4.946;2023-06-24T00:57:42;7.88;;;5.93;;
25091;SDS011;13082;52.374;4.946;2023-06-24T01:00:10;8.85;;;6.22;;
25091;SDS011;13082;52.374;4.946;2023-06-24T01:02:40;8.10;;;5.10;;
25091;SDS011;13082;52.374;4.946;2023-06-24T01:05:07;12.25;;;5.47;;
25091;SDS011;13082;52.374;4.946;2023-06-24T01:07:33;8.60;;;5.47;;
25091;SDS011;13082;52.374;4.946;2023-06-24T01:10:02;8.02;;;5.30;;
25091;SDS011;13082;52.374;4.946;2023-06-24T01:12:30;7.30;;;5.47;;
25091;SDS011;13082;52.374;4.946;2023-06-24T01:14:58;6.07;;;4.65;;
25091;SDS011;13082;52.374;4.946;2023-06-24T01:17:24;5.65;;;4.30;;
25091;SDS011;13082;52.374;4.946;2023-06-24T01:36:47;8.00;;;4.03;;
25091;SDS011;13082;52.374;4.946;2023-06-24T01:39:21;7.93;;;4.03;;
25091;SDS011;13082;52.374;4.946;2023-06-24T01:41:53;4.63;;;3.72;;
25091;SDS011;13082;52.374;4.946;2023-06-24T01:44:25;6.10;;;4.10;;
25091;SDS011;13082;52.374;4.946;2023-06-24T01:46:53;5.65;;;4.28;;
25091;SDS011;13082;52.374;4.946;2023-06-24T01:49:22;4.93;;;4.03;;
25091;SDS011;13082;52.374;4.946;2023-06-24T01:51:52;6.05;;;4.45;;
25091;SDS011;13082;52.374;4.946;2023-06-24T01:54:21;7.10;;;4.10;;
25091;SDS011;13082;52.374;4.946;2023-06-24T01:56:49;5.00;;;3.70;;
25091;SDS011;13082;52.374;4.946;2023-06-24T01:59:16;5.47;;;3.78;;
25091;SDS011;13082;52.374;4.946;2023-06-24T02:01:45;5.25;;;4.18;;
25091;SDS011;13082;52.374;4.946;2023-06-24T02:04:11;4.63;;;3.80;;
25091;SDS011;13082;52.374;4.946;2023-06-24T02:06:39;7.45;;;4.18;;
25091;SDS011;13082;52.374;4.946;2023-06-24T02:09:07;5.28;;;4.30;;
25091;SDS011;13082;52.374;4.946;2023-06-24T02:11:34;6.43;;;4.00;;
25091;SDS011;13082;52.374;4.946;2023-06-24T02:14:01;6.07;;;4.53;;
25091;SDS011;13082;52.374;4.946;2023-06-24T02:16:29;4.78;;;3.65;;
25091;SDS011;13082;52.374;4.946;2023-06-24T02:18:56;5.43;;;4.25;;
25091;SDS011;13082;52.374;4.946;2023-06-24T02:21:22;6.07;;;3.85;;
25091;SDS011;13082;52.374;4.946;2023-06-24T02:23:50;5.55;;;3.80;;
25091;SDS011;13082;52.374;4.946;2023-06-24T02:26:17;6.15;;;3.88;;
25091;SDS011;13082;52.374;4.946;2023-06-24T02:28:46;7.25;;;4.63;;
25091;SDS011;13082;52.374;4.946;2023-06-24T02:31:13;4.32;;;3.40;;
25091;SDS011;13082;52.374;4.946;2023-06-24T02:33:40;4.30;;;3.50;;
25091;SDS011;13082;52.374;4.946;2023-06-24T02:36:06;4.78;;;3.22;;
25091;SDS011;13082;52.374;4.946;2023-06-24T02:38:31;3.90;;;3.50;;
25091;SDS011;13082;52.374;4.946;2023-06-24T02:40:57;4.13;;;3.25;;
25091;SDS011;13082;52.374;4.946;2023-06-24T02:43:23;3.92;;;3.53;;
25091;SDS011;13082;52.374;4.946;2023-06-24T02:45:49;4.10;;;3.40;;
25091;SDS011;13082;52.374;4.946;2023-06-24T02:48:15;3.92;;;3.50;;
25091;SDS011;13082;52.374;4.946;2023-06-24T02:50:43;8.35;;;3.70;;
25091;SDS011;13082;52.374;4.946;2023-06-24T02:53:12;4.55;;;4.00;;
25091;SDS011;13082;52.374;4.946;2023-06-24T02:55:40;3.65;;;3.30;;
25091;SDS011;13082;52.374;4.946;2023-06-24T02:58:07;3.78;;;3.10;;
25091;SDS011;13082;52.374;4.946;2023-06-24T03:00:34;3.83;;;3.00;;
25091;SDS011;13082;52.374;4.946;2023-06-24T03:03:01;5.03;;;3.83;;
25091;SDS011;13082;52.374;4.946;2023-06-24T03:05:28;4.13;;;3.35;;
25091;SDS011;13082;52.374;4.946;2023-06-24T03:07:56;5.93;;;3.30;;
25091;SDS011;13082;52.374;4.946;2023-06-24T03:10:23;7.10;;;4.10;;
25091;SDS011;13082;52.374;4.946;2023-06-24T03:12:49;4.28;;;3.20;;
25091;SDS011;13082;52.374;4.946;2023-06-24T03:15:15;4.47;;;3.00;;
25091;SDS011;13082;52.374;4.946;2023-06-24T03:17:40;5.63;;;3.33;;
25091;SDS011;13082;52.374;4.946;2023-06-24T03:20:06;4.25;;;3.00;;
25091;SDS011;13082;52.374;4.946;2023-06-24T03:22:33;3.03;;;2.72;;
25091;SDS011;13082;52.374;4.946;2023-06-24T03:24:59;4.75;;;3.08;;
25091;SDS011;13082;52.374;4.946;2023-06-24T03:27:24;4.78;;;2.90;;
25091;SDS011;13082;52.374;4.946;2023-06-24T03:29:50;3.83;;;2.60;;
25091;SDS011;13082;52.374;4.946;2023-06-24T03:32:15;4.18;;;3.17;;
25091;SDS011;13082;52.374;4.946;2023-06-24T03:34:41;4.20;;;2.95;;
25091;SDS011;13082;52.374;4.946;2023-06-24T03:37:07;3.17;;;2.63;;
25091;SDS011;13082;52.374;4.946;2023-06-24T03:39:32;4.00;;;2.95;;
25091;SDS011;13082;52.374;4.946;2023-06-24T03:41:58;4.07;;;3.08;;
25091;SDS011;13082;52.374;4.946;2023-06-24T03:44:23;5.50;;;3.00;;
25091;SDS011;13082;52.374;4.946;2023-06-24T03:46:49;3.30;;;2.72;;
25091;SDS011;13082;52.374;4.946;2023-06-24T03:49:14;3.42;;;2.92;;
25091;SDS011;13082;52.374;4.946;2023-06-24T03:51:40;4.78;;;2.78;;
25091;SDS011;13082;52.374;4.946;2023-06-24T03:54:05;3.75;;;2.72;;
25091;SDS011;13082;52.374;4.946;2023-06-24T03:56:31;4.55;;;3.05;;
25091;SDS011;13082;52.374;4.946;2023-06-24T03:58:57;5.72;;;3.35;;
25091;SDS011;13082;52.374;4.946;2023-06-24T04:01:22;3.70;;;2.97;;
25091;SDS011;13082;52.374;4.946;2023-06-24T04:03:48;3.45;;;3.03;;
25091;SDS011;13082;52.374;4.946;2023-06-24T04:06:13;3.80;;;3.03;;
25091;SDS011;13082;52.374;4.946;2023-06-24T04:08:39;6.13;;;3.45;;
25091;SDS011;13082;52.374;4.946;2023-06-24T04:11:04;4.20;;;2.60;;
25091;SDS011;13082;52.374;4.946;2023-06-24T04:13:31;3.10;;;2.80;;
25091;SDS011;13082;52.374;4.946;2023-06-24T04:15:57;3.47;;;3.03;;
25091;SDS011;13082;52.374;4.946;2023-06-24T04:18:23;5.00;;;2.83;;
25091;SDS011;13082;52.374;4.946;2023-06-24T04:20:48;3.15;;;2.67;;
25091;SDS011;13082;52.374;4.946;2023-06-24T04:23:14;5.43;;;2.90;;
25091;SDS011;13082;52.374;4.946;2023-06-24T04:25:40;4.68;;;2.85;;
25091;SDS011;13082;52.374;4.946;2023-06-24T04:28:06;5.20;;;2.97;;
25091;SDS011;13082;52.374;4.946;2023-06-24T04:30:32;4.88;;;3.15;;
25091;SDS011;13082;52.374;4.946;2023-06-24T04:33:00;4.35;;;2.85;;
25091;SDS011;13082;52.374;4.946;2023-06-24T04:35:26;4.32;;;3.08;;
25091;SDS011;13082;52.374;4.946;2023-06-24T04:37:51;4.30;;;3.28;;
25091;SDS011;13082;52.374;4.946;2023-06-24T04:40:17;5.07;;;3.28;;
25091;SDS011;13082;52.374;4.946;2023-06-24T04:42:44;3.58;;;3.22;;
25091;SDS011;13082;52.374;4.946;2023-06-24T04:45:10;4.38;;;3.47;;
25091;SDS011;13082;52.374;4.946;2023-06-24T04:47:36;4.30;;;3.40;;
25091;SDS011;13082;52.374;4.946;2023-06-24T04:50:01;5.43;;;3.38;;
25091;SDS011;13082;52.374;4.946;2023-06-24T04:52:28;3.47;;;3.17;;
25091;SDS011;13082;52.374;4.946;2023-06-24T04:54:53;4.80;;;2.75;;
25091;SDS011;13082;52.374;4.946;2023-06-24T04:57:37;4.68;;;2.90;;
25091;SDS011;13082;52.374;4.946;2023-06-24T05:00:03;3.78;;;3.28;;
25091;SDS011;13082;52.374;4.946;2023-06-24T05:02:29;3.63;;;3.05;;
25091;SDS011;13082;52.374;4.946;2023-06-24T05:04:55;3.35;;;3.05;;
25091;SDS011;13082;52.374;4.946;2023-06-24T05:07:20;5.43;;;3.35;;
25091;SDS011;13082;52.374;4.946;2023-06-24T05:09:46;7.47;;;3.90;;
25091;SDS011;13082;52.374;4.946;2023-06-24T05:12:13;5.55;;;3.75;;
25091;SDS011;13082;52.374;4.946;2023-06-24T05:14:38;5.93;;;3.53;;
25091;SDS011;13082;52.374;4.946;2023-06-24T05:17:04;5.22;;;3.53;;
25091;SDS011;13082;52.374;4.946;2023-06-24T05:19:30;5.47;;;3.80;;
25091;SDS011;13082;52.374;4.946;2023-06-24T05:21:56;5.70;;;4.15;;
25091;SDS011;13082;52.374;4.946;2023-06-24T05:24:22;3.92;;;3.53;;
25091;SDS011;13082;52.374;4.946;2023-06-24T05:26:48;5.03;;;3.65;;
25091;SDS011;13082;52.374;4.946;2023-06-24T05:29:15;5.80;;;3.40;;
25091;SDS011;13082;52.374;4.946;2023-06-24T05:31:41;5.97;;;3.53;;
25091;SDS011;13082;52.374;4.946;2023-06-24T05:34:07;5.05;;;3.65;;
25091;SDS011;13082;52.374;4.946;2023-06-24T05:36:33;4.20;;;3.78;;
25091;SDS011;13082;52.374;4.946;2023-06-24T05:38:59;4.47;;;3.72;;
25091;SDS011;13082;52.374;4.946;2023-06-24T05:41:25;6.55;;;3.60;;
25091;SDS011;13082;52.374;4.946;2023-06-24T05:44:00;3.58;;;3.28;;
25091;SDS011;13082;52.374;4.946;2023-06-24T05:46:31;4.57;;;3.33;;
25091;SDS011;13082;52.374;4.946;2023-06-24T05:48:57;4.28;;;3.88;;
25091;SDS011;13082;52.374;4.946;2023-06-24T05:51:23;5.05;;;3.78;;
25091;SDS011;13082;52.374;4.946;2023-06-24T05:53:48;4.18;;;3.13;;
25091;SDS011;13082;52.374;4.946;2023-06-24T05:56:14;5.60;;;3.80;;
25091;SDS011;13082;52.374;4.946;2023-06-24T05:58:39;8.82;;;4.45;;
25091;SDS011;13082;52.374;4.946;2023-06-24T06:01:06;5.38;;;3.88;;
25091;SDS011;13082;52.374;4.946;2023-06-24T06:03:32;4.93;;;4.00;;
25091;SDS011;13082;52.374;4.946;2023-06-24T06:05:58;5.13;;;3.72;;
25091;SDS011;13082;52.374;4.946;2023-06-24T06:08:23;5.22;;;3.53;;
25091;SDS011;13082;52.374;4.946;2023-06-24T06:10:49;6.18;;;4.20;;
25091;SDS011;13082;52.374;4.946;2023-06-24T06:13:14;5.90;;;3.88;;
25091;SDS011;13082;52.374;4.946;2023-06-24T06:15:40;6.05;;;3.80;;
25091;SDS011;13082;52.374;4.946;2023-06-24T06:18:05;5.60;;;3.70;;
25091;SDS011;13082;52.374;4.946;2023-06-24T06:20:31;5.35;;;3.60;;
25091;SDS011;13082;52.374;4.946;2023-06-24T06:22:57;5.90;;;4.22;;
25091;SDS011;13082;52.374;4.946;2023-06-24T06:25:23;6.53;;;3.97;;
25091;SDS011;13082;52.374;4.946;2023-06-24T06:27:48;4.07;;;3.42;;
25091;SDS011;13082;52.374;4.946;2023-06-24T06:30:14;7.07;;;3.70;;
25091;SDS011;13082;52.374;4.946;2023-06-24T06:32:40;4.80;;;4.03;;
25091;SDS011;13082;52.374;4.946;2023-06-24T06:35:06;5.50;;;3.83;;
25091;SDS011;13082;52.374;4.946;2023-06-24T06:37:33;5.10;;;3.85;;
25091;SDS011;13082;52.374;4.946;2023-06-24T06:39:58;6.72;;;4.13;;
25091;SDS011;13082;52.374;4.946;2023-06-24T06:42:24;4.47;;;3.97;;
25091;SDS011;13082;52.374;4.946;2023-06-24T06:44:50;6.63;;;4.10;;
25091;SDS011;13082;52.374;4.946;2023-06-24T06:47:16;4.35;;;3.33;;
25091;SDS011;13082;52.374;4.946;2023-06-24T06:49:41;6.80;;;3.83;;
25091;SDS011;13082;52.374;4.946;2023-06-24T06:52:07;8.10;;;3.60;;
25091;SDS011;13082;52.374;4.946;2023-06-24T06:54:33;5.88;;;4.13;;
25091;SDS011;13082;52.374;4.946;2023-06-24T06:57:02;6.35;;;4.30;;
25091;SDS011;13082;52.374;4.946;2023-06-24T06:59:29;7.50;;;4.10;;
25091;SDS011;13082;52.374;4.946;2023-06-24T07:01:55;5.40;;;3.63;;
25091;SDS011;13082;52.374;4.946;2023-06-24T07:04:21;7.55;;;4.60;;
25091;SDS011;13082;52.374;4.946;2023-06-24T07:06:47;4.82;;;4.18;;
25091;SDS011;13082;52.374;4.946;2023-06-24T07:09:13;6.38;;;4.05;;
25091;SDS011;13082;52.374;4.946;2023-06-24T07:11:40;6.70;;;4.50;;
25091;SDS011;13082;52.374;4.946;2023-06-24T07:14:06;8.75;;;4.53;;
25091;SDS011;13082;52.374;4.946;2023-06-24T07:16:31;4.78;;;4.03;;
25091;SDS011;13082;52.374;4.946;2023-06-24T07:18:57;4.63;;;3.97;;
25091;SDS011;13082;52.374;4.946;2023-06-24T07:21:23;3.92;;;3.33;;
25091;SDS011;13082;52.374;4.946;2023-06-24T07:23:48;9.70;;;4.35;;
25091;SDS011;13082;52.374;4.946;2023-06-24T07:26:14;5.38;;;4.05;;
25091;SDS011;13082;52.374;4.946;2023-06-24T07:28:39;6.32;;;5.13;;
25091;SDS011;13082;52.374;4.946;2023-06-24T07:31:05;5.32;;;3.92;;
25091;SDS011;13082;52.374;4.946;2023-06-24T07:33:30;6.05;;;4.47;;
25091;SDS011;13082;52.374;4.946;2023-06-24T07:35:56;5.03;;;4.30;;
25091;SDS011;13082;52.374;4.946;2023-06-24T07:38:22;9.77;;;5.35;;
25091;SDS011;13082;52.374;4.946;2023-06-24T07:40:48;8.20;;;4.70;;
25091;SDS011;13082;52.374;4.946;2023-06-24T07:43:13;6.68;;;4.85;;
25091;SDS011;13082;52.374;4.946;2023-06-24T07:45:39;5.10;;;4.55;;
25091;SDS011;13082;52.374;4.946;2023-06-24T07:48:05;7.50;;;4.47;;
25091;SDS011;13082;52.374;4.946;2023-06-24T07:50:32;6.07;;;4.90;;
25091;SDS011;13082;52.374;4.946;2023-06-24T07:52:58;4.80;;;3.95;;
25091;SDS011;13082;52.374;4.946;2023-06-24T07:55:24;7.90;;;4.82;;
25091;SDS011;13082;52.374;4.946;2023-06-24T07:57:49;5.75;;;4.80;;
25091;SDS011;13082;52.374;4.946;2023-06-24T08:00:15;11.55;;;4.82;;
25091;SDS011;13082;52.374;4.946;2023-06-24T08:02:41;8.07;;;4.65;;
25091;SDS011;13082;52.374;4.946;2023-06-24T08:05:07;6.93;;;4.40;;
25091;SDS011;13082;52.374;4.946;2023-06-24T08:07:34;6.15;;;4.38;;
25091;SDS011;13082;52.374;4.946;2023-06-24T08:10:00;6.45;;;4.75;;
25091;SDS011;13082;52.374;4.946;2023-06-24T08:12:26;6.50;;;4.68;;
25091;SDS011;13082;52.374;4.946;2023-06-24T08:14:51;5.63;;;4.15;;
25091;SDS011;13082;52.374;4.946;2023-06-24T08:17:17;7.15;;;4.78;;
25091;SDS011;13082;52.374;4.946;2023-06-24T08:19:42;7.53;;;4.53;;
25091;SDS011;13082;52.374;4.946;2023-06-24T08:22:08;6.05;;;4.90;;
25091;SDS011;13082;52.374;4.946;2023-06-24T08:24:34;4.88;;;4.05;;
25091;SDS011;13082;52.374;4.946;2023-06-24T08:26:59;6.35;;;4.38;;
25091;SDS011;13082;52.374;4.946;2023-06-24T08:29:25;4.80;;;4.30;;
25091;SDS011;13082;52.374;4.946;2023-06-24T08:31:50;7.68;;;4.72;;
25091;SDS011;13082;52.374;4.946;2023-06-24T08:34:16;6.88;;;4.05;;
25091;SDS011;13082;52.374;4.946;2023-06-24T08:36:42;7.13;;;4.65;;
25091;SDS011;13082;52.374;4.946;2023-06-24T08:39:07;6.07;;;4.95;;
25091;SDS011;13082;52.374;4.946;2023-06-24T08:41:33;6.30;;;4.38;;
25091;SDS011;13082;52.374;4.946;2023-06-24T08:43:59;5.35;;;4.47;;
25091;SDS011;13082;52.374;4.946;2023-06-24T08:46:24;8.93;;;5.32;;
25091;SDS011;13082;52.374;4.946;2023-06-24T08:48:54;5.80;;;4.38;;
25091;SDS011;13082;52.374;4.946;2023-06-24T08:51:27;6.38;;;4.50;;
25091;SDS011;13082;52.374;4.946;2023-06-24T08:53:56;5.93;;;4.82;;
25091;SDS011;13082;52.374;4.946;2023-06-24T08:56:23;7.25;;;5.13;;
25091;SDS011;13082;52.374;4.946;2023-06-24T08:58:50;7.85;;;4.75;;
25091;SDS011;13082;52.374;4.946;2023-06-24T09:01:16;8.95;;;5.40;;
25091;SDS011;13082;52.374;4.946;2023-06-24T09:03:42;7.03;;;4.10;;
25091;SDS011;13082;52.374;4.946;2023-06-24T09:06:08;8.63;;;4.55;;
25091;SDS011;13082;52.374;4.946;2023-06-24T09:08:33;8.82;;;5.20;;
25091;SDS011;13082;52.374;4.946;2023-06-24T09:11:00;5.93;;;4.57;;
25091;SDS011;13082;52.374;4.946;2023-06-24T09:13:35;5.88;;;4.32;;
25091;SDS011;13082;52.374;4.946;2023-06-24T09:16:11;4.88;;;4.07;;
25091;SDS011;13082;52.374;4.946;2023-06-24T09:18:40;7.32;;;4.10;;
25091;SDS011;13082;52.374;4.946;2023-06-24T09:21:05;4.90;;;4.20;;
25091;SDS011;13082;52.374;4.946;2023-06-24T09:23:35;6.80;;;4.10;;
25091;SDS011;13082;52.374;4.946;2023-06-24T09:26:02;4.32;;;3.80;;
25091;SDS011;13082;52.374;4.946;2023-06-24T09:28:28;6.70;;;4.15;;
25091;SDS011;13082;52.374;4.946;2023-06-24T09:33:32;6.55;;;4.20;;
25091;SDS011;13082;52.374;4.946;2023-06-24T09:35:59;4.20;;;3.80;;
25091;SDS011;13082;52.374;4.946;2023-06-24T09:38:36;5.07;;;3.97;;
25091;SDS011;13082;52.374;4.946;2023-06-24T09:41:03;7.20;;;3.90;;
25091;SDS011;13082;52.374;4.946;2023-06-24T09:43:31;5.05;;;3.60;;
25091;SDS011;13082;52.374;4.946;2023-06-24T09:46:02;5.10;;;4.38;;
25091;SDS011;13082;52.374;4.946;2023-06-24T09:48:29;5.60;;;4.53;;
25091;SDS011;13082;52.374;4.946;2023-06-24T09:50:59;4.85;;;4.10;;
25091;SDS011;13082;52.374;4.946;2023-06-24T09:53:32;5.43;;;4.20;;
25091;SDS011;13082;52.374;4.946;2023-06-24T09:55:59;7.05;;;4.82;;
25091;SDS011;13082;52.374;4.946;2023-06-24T09:58:28;6.55;;;3.45;;
25091;SDS011;13082;52.374;4.946;2023-06-24T10:00:56;5.47;;;4.22;;
25091;SDS011;13082;52.374;4.946;2023-06-24T10:03:26;5.32;;;3.88;;
25091;SDS011;13082;52.374;4.946;2023-06-24T10:05:53;4.82;;;4.18;;
25091;SDS011;13082;52.374;4.946;2023-06-24T10:08:19;7.35;;;4.88;;
25091;SDS011;13082;52.374;4.946;2023-06-24T10:10:45;6.00;;;3.72;;
25091;SDS011;13082;52.374;4.946;2023-06-24T10:13:11;5.85;;;4.13;;
25091;SDS011;13082;52.374;4.946;2023-06-24T10:15:36;9.43;;;4.75;;
25091;SDS011;13082;52.374;4.946;2023-06-24T10:18:02;6.10;;;3.95;;
25091;SDS011;13082;52.374;4.946;2023-06-24T10:20:28;4.53;;;4.13;;
25091;SDS011;13082;52.374;4.946;2023-06-24T10:22:54;5.45;;;4.35;;
25091;SDS011;13082;52.374;4.946;2023-06-24T10:25:20;5.90;;;4.47;;
25091;SDS011;13082;52.374;4.946;2023-06-24T10:27:47;5.13;;;4.32;;
25091;SDS011;13082;52.374;4.946;2023-06-24T10:30:19;10.32;;;5.10;;
25091;SDS011;13082;52.374;4.946;2023-06-24T10:32:46;5.15;;;4.65;;
25091;SDS011;13082;52.374;4.946;2023-06-24T10:35:24;7.70;;;5.00;;
25091;SDS011;13082;52.374;4.946;2023-06-24T10:37:55;5.22;;;3.97;;
25091;SDS011;13082;52.374;4.946;2023-06-24T10:40:35;8.85;;;5.03;;
25091;SDS011;13082;52.374;4.946;2023-06-24T10:43:03;6.38;;;4.55;;
25091;SDS011;13082;52.374;4.946;2023-06-24T10:45:51;6.40;;;4.40;;
25091;SDS011;13082;52.374;4.946;2023-06-24T10:48:18;6.15;;;4.50;;
25091;SDS011;13082;52.374;4.946;2023-06-24T10:50:44;8.57;;;5.35;;
25091;SDS011;13082;52.374;4.946;2023-06-24T10:53:10;7.53;;;5.20;;
25091;SDS011;13082;52.374;4.946;2023-06-24T10:55:38;6.70;;;5.57;;
25091;SDS011;13082;52.374;4.946;2023-06-24T10:58:11;7.25;;;5.63;;
25091;SDS011;13082;52.374;4.946;2023-06-24T11:00:41;8.13;;;4.90;;
25091;SDS011;13082;52.374;4.946;2023-06-24T11:03:12;5.13;;;4.30;;
25091;SDS011;13082;52.374;4.946;2023-06-24T11:05:42;6.43;;;4.90;;
25091;SDS011;13082;52.374;4.946;2023-06-24T11:08:09;5.38;;;4.20;;
25091;SDS011;13082;52.374;4.946;2023-06-24T11:10:42;6.50;;;5.13;;
25091;SDS011;13082;52.374;4.946;2023-06-24T11:13:11;7.63;;;5.28;;
25091;SDS011;13082;52.374;4.946;2023-06-24T11:15:38;7.20;;;5.43;;
25091;SDS011;13082;52.374;4.946;2023-06-24T11:18:05;8.32;;;4.95;;
25091;SDS011;13082;52.374;4.946;2023-06-24T11:20:34;5.72;;;5.07;;
25091;SDS011;13082;52.374;4.946;2023-06-24T11:23:07;6.47;;;4.88;;
25091;SDS011;13082;52.374;4.946;2023-06-24T11:25:38;8.98;;;5.30;;
25091;SDS011;13082;52.374;4.946;2023-06-24T11:28:05;8.07;;;4.68;;
25091;SDS011;13082;52.374;4.946;2023-06-24T11:30:36;8.68;;;5.65;;
25091;SDS011;13082;52.374;4.946;2023-06-24T11:33:02;6.97;;;4.43;;
25091;SDS011;13082;52.374;4.946;2023-06-24T11:35:28;4.45;;;4.03;;
25091;SDS011;13082;52.374;4.946;2023-06-24T11:37:57;7.70;;;3.85;;
25091;SDS011;13082;52.374;4.946;2023-06-24T11:40:23;5.07;;;4.15;;
25091;SDS011;13082;52.374;4.946;2023-06-24T11:42:49;9.68;;;5.40;;
25091;SDS011;13082;52.374;4.946;2023-06-24T11:45:19;6.13;;;4.90;;
25091;SDS011;13082;52.374;4.946;2023-06-24T11:47:45;7.25;;;4.65;;
25091;SDS011;13082;52.374;4.946;2023-06-24T11:50:11;8.45;;;4.13;;
25091;SDS011;13082;52.374;4.946;2023-06-24T11:55:13;9.82;;;4.88;;
25091;SDS011;13082;52.374;4.946;2023-06-24T12:00:31;8.32;;;4.15;;
25091;SDS011;13082;52.374;4.946;2023-06-24T12:03:07;6.72;;;4.65;;
25091;SDS011;13082;52.374;4.946;2023-06-24T12:05:34;7.85;;;4.60;;
25091;SDS011;13082;52.374;4.946;2023-06-24T12:08:02;6.82;;;4.30;;
25091;SDS011;13082;52.374;4.946;2023-06-24T12:10:32;9.75;;;5.15;;
25091;SDS011;13082;52.374;4.946;2023-06-24T12:12:59;7.25;;;4.70;;
25091;SDS011;13082;52.374;4.946;2023-06-24T12:15:25;5.80;;;4.43;;
25091;SDS011;13082;52.374;4.946;2023-06-24T12:17:51;6.30;;;5.35;;
25091;SDS011;13082;52.374;4.946;2023-06-24T12:20:17;6.60;;;4.35;;
25091;SDS011;13082;52.374;4.946;2023-06-24T12:22:44;6.43;;;5.07;;
25091;SDS011;13082;52.374;4.946;2023-06-24T12:25:10;7.65;;;4.43;;
25091;SDS011;13082;52.374;4.946;2023-06-24T12:27:36;9.27;;;4.13;;
25091;SDS011;13082;52.374;4.946;2023-06-24T12:30:03;7.18;;;4.40;;
25091;SDS011;13082;52.374;4.946;2023-06-24T12:32:29;5.88;;;4.28;;
25091;SDS011;13082;52.374;4.946;2023-06-24T12:34:54;6.43;;;4.25;;
25091;SDS011;13082;52.374;4.946;2023-06-24T12:37:20;4.82;;;4.03;;
25091;SDS011;13082;52.374;4.946;2023-06-24T12:39:46;9.05;;;3.78;;
25091;SDS011;13082;52.374;4.946;2023-06-24T12:42:12;6.07;;;4.32;;
25091;SDS011;13082;52.374;4.946;2023-06-24T12:44:38;8.98;;;4.03;;
25091;SDS011;13082;52.374;4.946;2023-06-24T12:47:03;5.82;;;4.53;;
25091;SDS011;13082;52.374;4.946;2023-06-24T12:49:29;5.85;;;4.63;;
25091;SDS011;13082;52.374;4.946;2023-06-24T12:51:55;6.43;;;4.57;;
25091;SDS011;13082;52.374;4.946;2023-06-24T12:54:20;5.25;;;4.75;;
25091;SDS011;13082;52.374;4.946;2023-06-24T12:56:46;10.88;;;4.22;;
25091;SDS011;13082;52.374;4.946;2023-06-24T12:59:12;8.88;;;3.97;;
25091;SDS011;13082;52.374;4.946;2023-06-24T13:01:37;6.55;;;4.47;;
25091;SDS011;13082;52.374;4.946;2023-06-24T13:04:03;10.50;;;4.10;;
25091;SDS011;13082;52.374;4.946;2023-06-24T13:06:28;4.85;;;4.32;;
25091;SDS011;13082;52.374;4.946;2023-06-24T13:08:54;4.40;;;4.00;;
25091;SDS011;13082;52.374;4.946;2023-06-24T13:11:20;5.68;;;3.95;;
25091;SDS011;13082;52.374;4.946;2023-06-24T13:13:45;4.30;;;3.85;;
25091;SDS011;13082;52.374;4.946;2023-06-24T13:16:11;6.57;;;4.40;;
25091;SDS011;13082;52.374;4.946;2023-06-24T13:18:37;5.50;;;3.75;;
25091;SDS011;13082;52.374;4.946;2023-06-24T13:21:02;7.13;;;4.10;;
25091;SDS011;13082;52.374;4.946;2023-06-24T13:23:28;5.50;;;4.18;;
25091;SDS011;13082;52.374;4.946;2023-06-24T13:25:54;4.55;;;3.40;;
25091;SDS011;13082;52.374;4.946;2023-06-24T13:28:19;9.38;;;4.78;;
25091;SDS011;13082;52.374;4.946;2023-06-24T13:30:45;6.93;;;4.38;;
25091;SDS011;13082;52.374;4.946;2023-06-24T13:33:11;6.57;;;4.45;;
25091;SDS011;13082;52.374;4.946;2023-06-24T13:35:36;4.55;;;4.13;;
25091;SDS011;13082;52.374;4.946;2023-06-24T13:38:02;32.53;;;5.85;;
25091;SDS011;13082;52.374;4.946;2023-06-24T13:40:27;6.38;;;4.10;;
25091;SDS011;13082;52.374;4.946;2023-06-24T13:42:53;6.10;;;4.10;;
25091;SDS011;13082;52.374;4.946;2023-06-24T13:45:18;7.28;;;4.43;;
25091;SDS011;13082;52.374;4.946;2023-06-24T13:47:44;7.45;;;4.25;;
25091;SDS011;13082;52.374;4.946;2023-06-24T13:50:10;4.93;;;3.75;;
25091;SDS011;13082;52.374;4.946;2023-06-24T13:52:36;5.47;;;3.75;;
25091;SDS011;13082;52.374;4.946;2023-06-24T13:55:02;4.88;;;4.38;;
25091;SDS011;13082;52.374;4.946;2023-06-24T13:57:29;8.45;;;4.50;;
25091;SDS011;13082;52.374;4.946;2023-06-24T13:59:55;5.82;;;3.90;;
25091;SDS011;13082;52.374;4.946;2023-06-24T14:02:20;5.85;;;3.92;;
25091;SDS011;13082;52.374;4.946;2023-06-24T14:04:46;7.20;;;4.25;;
25091;SDS011;13082;52.374;4.946;2023-06-24T14:07:13;5.07;;;3.92;;
25091;SDS011;13082;52.374;4.946;2023-06-24T14:09:38;6.28;;;4.20;;
25091;SDS011;13082;52.374;4.946;2023-06-24T14:12:05;5.57;;;4.30;;
25091;SDS011;13082;52.374;4.946;2023-06-24T14:14:31;4.57;;;4.18;;
25091;SDS011;13082;52.374;4.946;2023-06-24T14:16:59;6.47;;;4.13;;
25091;SDS011;13082;52.374;4.946;2023-06-24T14:19:24;4.80;;;4.00;;
25091;SDS011;13082;52.374;4.946;2023-06-24T14:21:50;8.63;;;3.97;;
25091;SDS011;13082;52.374;4.946;2023-06-24T14:24:16;5.72;;;4.18;;
25091;SDS011;13082;52.374;4.946;2023-06-24T14:26:41;5.70;;;4.40;;
25091;SDS011;13082;52.374;4.946;2023-06-24T14:29:07;5.85;;;4.20;;
25091;SDS011;13082;52.374;4.946;2023-06-24T14:31:32;5.63;;;4.50;;
25091;SDS011;13082;52.374;4.946;2023-06-24T14:33:58;8.13;;;4.55;;
25091;SDS011;13082;52.374;4.946;2023-06-24T14:36:23;7.28;;;4.60;;
25091;SDS011;13082;52.374;4.946;2023-06-24T14:38:49;5.60;;;4.28;;
25091;SDS011;13082;52.374;4.946;2023-06-24T14:41:15;7.40;;;4.45;;
25091;SDS011;13082;52.374;4.946;2023-06-24T14:43:40;5.72;;;4.40;;
25091;SDS011;13082;52.374;4.946;2023-06-24T14:46:06;7.63;;;3.85;;
25091;SDS011;13082;52.374;4.946;2023-06-24T14:48:31;5.40;;;3.72;;
25091;SDS011;13082;52.374;4.946;2023-06-24T14:50:57;5.80;;;4.88;;
25091;SDS011;13082;52.374;4.946;2023-06-24T14:53:22;5.93;;;4.03;;
25091;SDS011;13082;52.374;4.946;2023-06-24T14:55:48;6.85;;;4.30;;
25091;SDS011;13082;52.374;4.946;2023-06-24T14:58:14;13.05;;;4.13;;
25091;SDS011;13082;52.374;4.946;2023-06-24T15:00:39;6.57;;;4.53;;
25091;SDS011;13082;52.374;4.946;2023-06-24T15:03:05;6.50;;;3.92;;
25091;SDS011;13082;52.374;4.946;2023-06-24T15:05:32;5.03;;;4.13;;
25091;SDS011;13082;52.374;4.946;2023-06-24T15:07:59;5.05;;;4.45;;
25091;SDS011;13082;52.374;4.946;2023-06-24T15:10:24;5.75;;;5.25;;